sensor_id;sensor_type;location;lat;lon;timestamp;temperature;humidity
7494;DHT22;3788;49.902;8.590;2023-04-06T00:01:31;4.30;67.20
7494;DHT22;3788;49.902;8.590;2023-04-06T00:03:58;4.30;67.40
7494;DHT22;3788;49.902;8.590;2023-04-06T00:06:25;4.30;67.60
7494;DHT22;3788;49.902;8.590;2023-04-06T00:08:55;4.30;67.80
7494;DHT22;3788;49.902;8.590;2023-04-06T00:11:21;4.30;68.00
7494;DHT22;3788;49.902;8.590;2023-04-06T00:13:51;4.20;68.30
7494;DHT22;3788;49.902;8.590;2023-04-06T00:16:25;4.20;68.40
7494;DHT22;3788;49.902;8.590;2023-04-06T00:18:54;4.20;68.50
7494;DHT22;3788;49.902;8.590;2023-04-06T00:21:21;4.20;69.00
7494;DHT22;3788;49.902;8.590;2023-04-06T00:23:47;4.10;69.40
7494;DHT22;3788;49.902;8.590;2023-04-06T00:26:16;4.10;69.80
7494;DHT22;3788;49.902;8.590;2023-04-06T00:28:43;4.10;70.20
7494;DHT22;3788;49.902;8.590;2023-04-06T00:31:10;4.10;70.50
7494;DHT22;3788;49.902;8.590;2023-04-06T00:33:38;4.20;70.80
7494;DHT22;3788;49.902;8.590;2023-04-06T00:36:07;4.20;70.90
7494;DHT22;3788;49.902;8.590;2023-04-06T00:38:34;4.20;70.90
7494;DHT22;3788;49.902;8.590;2023-04-06T00:41:00;4.20;71.00
7494;DHT22;3788;49.902;8.590;2023-04-06T00:43:27;4.20;71.00
7494;DHT22;3788;49.902;8.590;2023-04-06T00:45:54;4.20;71.00
7494;DHT22;3788;49.902;8.590;2023-04-06T00:48:21;4.10;71.00
7494;DHT22;3788;49.902;8.590;2023-04-06T00:50:51;4.10;71.00
7494;DHT22;3788;49.902;8.590;2023-04-06T00:53:18;4.10;71.10
7494;DHT22;3788;49.902;8.590;2023-04-06T00:55:44;4.00;71.30
7494;DHT22;3788;49.902;8.590;2023-04-06T00:58:11;4.00;71.50
7494;DHT22;3788;49.902;8.590;2023-04-06T01:00:38;4.00;71.40
7494;DHT22;3788;49.902;8.590;2023-04-06T01:03:05;4.00;71.30
7494;DHT22;3788;49.902;8.590;2023-04-06T01:05:33;3.90;71.20
7494;DHT22;3788;49.902;8.590;2023-04-06T01:08:01;3.90;71.30
7494;DHT22;3788;49.902;8.590;2023-04-06T01:10:28;3.90;71.60
7494;DHT22;3788;49.902;8.590;2023-04-06T01:12:55;3.80;71.90
7494;DHT22;3788;49.902;8.590;2023-04-06T01:15:25;3.70;72.10
7494;DHT22;3788;49.902;8.590;2023-04-06T01:17:55;3.60;72.30
7494;DHT22;3788;49.902;8.590;2023-04-06T01:20:21;3.60;72.80
7494;DHT22;3788;49.902;8.590;2023-04-06T01:22:53;3.50;73.20
7494;DHT22;3788;49.902;8.590;2023-04-06T01:25:20;3.40;73.70
7494;DHT22;3788;49.902;8.590;2023-04-06T01:27:46;3.40;74.40
7494;DHT22;3788;49.902;8.590;2023-04-06T01:30:13;3.40;74.90
7494;DHT22;3788;49.902;8.590;2023-04-06T01:32:41;3.50;75.40
7494;DHT22;3788;49.902;8.590;2023-04-06T01:35:09;3.50;75.60
7494;DHT22;3788;49.902;8.590;2023-04-06T01:37:35;3.50;75.80
7494;DHT22;3788;49.902;8.590;2023-04-06T01:40:07;3.50;76.30
7494;DHT22;3788;49.902;8.590;2023-04-06T01:42:34;3.50;77.20
7494;DHT22;3788;49.902;8.590;2023-04-06T01:45:11;3.50;78.60
7494;DHT22;3788;49.902;8.590;2023-04-06T01:47:40;3.50;78.30
7494;DHT22;3788;49.902;8.590;2023-04-06T01:50:09;3.50;78.50
7494;DHT22;3788;49.902;8.590;2023-04-06T01:52:38;3.40;78.60
7494;DHT22;3788;49.902;8.590;2023-04-06T01:55:07;3.40;78.70
7494;DHT22;3788;49.902;8.590;2023-04-06T01:57:36;3.30;78.50
7494;DHT22;3788;49.902;8.590;2023-04-06T02:00:03;3.30;78.60
7494;DHT22;3788;49.902;8.590;2023-04-06T02:02:30;3.30;78.80
7494;DHT22;3788;49.902;8.590;2023-04-06T02:04:57;3.30;78.90
7494;DHT22;3788;49.902;8.590;2023-04-06T02:07:27;3.30;79.20
7494;DHT22;3788;49.902;8.590;2023-04-06T02:09:54;3.20;79.50
7494;DHT22;3788;49.902;8.590;2023-04-06T02:12:23;3.20;79.80
7494;DHT22;3788;49.902;8.590;2023-04-06T02:14:49;3.10;80.00
7494;DHT22;3788;49.902;8.590;2023-04-06T02:17:17;3.10;80.30
7494;DHT22;3788;49.902;8.590;2023-04-06T02:19:43;3.10;80.40
7494;DHT22;3788;49.902;8.590;2023-04-06T02:22:10;3.10;80.30
7494;DHT22;3788;49.902;8.590;2023-04-06T02:24:37;3.10;80.30
7494;DHT22;3788;49.902;8.590;2023-04-06T02:27:05;3.00;80.40
7494;DHT22;3788;49.902;8.590;2023-04-06T02:29:33;2.90;80.70
7494;DHT22;3788;49.902;8.590;2023-04-06T02:32:00;3.00;81.00
7494;DHT22;3788;49.902;8.590;2023-04-06T02:34:26;2.90;81.00
7494;DHT22;3788;49.902;8.590;2023-04-06T02:36:55;2.90;81.00
7494;DHT22;3788;49.902;8.590;2023-04-06T02:39:21;2.80;81.10
7494;DHT22;3788;49.902;8.590;2023-04-06T02:41:48;2.80;81.40
7494;DHT22;3788;49.902;8.590;2023-04-06T02:44:15;2.70;81.50
7494;DHT22;3788;49.902;8.590;2023-04-06T02:46:43;2.70;81.50
7494;DHT22;3788;49.902;8.590;2023-04-06T02:49:09;2.60;81.50
7494;DHT22;3788;49.902;8.590;2023-04-06T02:51:36;2.60;81.70
7494;DHT22;3788;49.902;8.590;2023-04-06T02:54:03;2.60;81.60
7494;DHT22;3788;49.902;8.590;2023-04-06T02:56:29;2.60;81.30
7494;DHT22;3788;49.902;8.590;2023-04-06T02:58:56;2.60;81.20
7494;DHT22;3788;49.902;8.590;2023-04-06T03:01:23;2.60;81.10
7494;DHT22;3788;49.902;8.590;2023-04-06T03:03:51;2.60;80.90
7494;DHT22;3788;49.902;8.590;2023-04-06T03:06:18;2.60;80.90
7494;DHT22;3788;49.902;8.590;2023-04-06T03:08:44;2.60;80.90
7494;DHT22;3788;49.902;8.590;2023-04-06T03:11:12;2.50;80.80
7494;DHT22;3788;49.902;8.590;2023-04-06T03:13:39;2.50;80.80
7494;DHT22;3788;49.902;8.590;2023-04-06T03:16:06;2.50;80.70
7494;DHT22;3788;49.902;8.590;2023-04-06T03:18:33;2.50;80.70
7494;DHT22;3788;49.902;8.590;2023-04-06T03:21:01;2.50;80.80
7494;DHT22;3788;49.902;8.590;2023-04-06T03:23:27;2.40;81.00
7494;DHT22;3788;49.902;8.590;2023-04-06T03:25:54;2.40;81.30
7494;DHT22;3788;49.902;8.590;2023-04-06T03:28:21;2.40;81.30
7494;DHT22;3788;49.902;8.590;2023-04-06T03:30:48;2.50;81.50
7494;DHT22;3788;49.902;8.590;2023-04-06T03:33:15;2.50;81.30
7494;DHT22;3788;49.902;8.590;2023-04-06T03:35:41;2.40;81.40
7494;DHT22;3788;49.902;8.590;2023-04-06T03:38:09;2.40;81.60
7494;DHT22;3788;49.902;8.590;2023-04-06T03:40:36;2.40;81.80
7494;DHT22;3788;49.902;8.590;2023-04-06T03:43:04;2.50;82.10
7494;DHT22;3788;49.902;8.590;2023-04-06T03:45:30;2.50;82.20
7494;DHT22;3788;49.902;8.590;2023-04-06T03:47:57;2.60;82.30
7494;DHT22;3788;49.902;8.590;2023-04-06T03:50:24;2.60;82.20
7494;DHT22;3788;49.902;8.590;2023-04-06T03:52:50;2.70;82.10
7494;DHT22;3788;49.902;8.590;2023-04-06T03:55:18;2.70;81.80
7494;DHT22;3788;49.902;8.590;2023-04-06T03:57:45;2.70;81.60
7494;DHT22;3788;49.902;8.590;2023-04-06T04:00:12;2.60;81.80
7494;DHT22;3788;49.902;8.590;2023-04-06T04:02:40;2.60;82.10
7494;DHT22;3788;49.902;8.590;2023-04-06T04:05:07;2.60;82.10
7494;DHT22;3788;49.902;8.590;2023-04-06T04:07:34;2.60;81.90
7494;DHT22;3788;49.902;8.590;2023-04-06T04:10:00;2.50;81.90
7494;DHT22;3788;49.902;8.590;2023-04-06T04:12:28;2.40;82.10
7494;DHT22;3788;49.902;8.590;2023-04-06T04:14:55;2.40;82.50
7494;DHT22;3788;49.902;8.590;2023-04-06T04:17:22;2.40;83.60
7494;DHT22;3788;49.902;8.590;2023-04-06T04:19:48;2.40;82.80
7494;DHT22;3788;49.902;8.590;2023-04-06T04:22:15;2.40;82.70
7494;DHT22;3788;49.902;8.590;2023-04-06T04:24:42;2.30;82.90
7494;DHT22;3788;49.902;8.590;2023-04-06T04:27:09;2.20;83.20
7494;DHT22;3788;49.902;8.590;2023-04-06T04:29:37;2.10;83.70
7494;DHT22;3788;49.902;8.590;2023-04-06T04:32:04;2.10;84.00
7494;DHT22;3788;49.902;8.590;2023-04-06T04:34:31;2.10;84.40
7494;DHT22;3788;49.902;8.590;2023-04-06T04:36:58;2.10;84.50
7494;DHT22;3788;49.902;8.590;2023-04-06T04:39:24;2.20;84.70
7494;DHT22;3788;49.902;8.590;2023-04-06T04:41:51;2.20;84.60
7494;DHT22;3788;49.902;8.590;2023-04-06T04:44:19;2.20;85.40
7494;DHT22;3788;49.902;8.590;2023-04-06T04:46:47;2.20;84.70
7494;DHT22;3788;49.902;8.590;2023-04-06T04:49:14;2.20;84.40
7494;DHT22;3788;49.902;8.590;2023-04-06T04:51:40;2.20;84.40
7494;DHT22;3788;49.902;8.590;2023-04-06T04:54:07;2.10;84.60
7494;DHT22;3788;49.902;8.590;2023-04-06T04:56:34;2.10;84.90
7494;DHT22;3788;49.902;8.590;2023-04-06T04:59:00;2.00;85.20
7494;DHT22;3788;49.902;8.590;2023-04-06T05:01:27;2.00;85.50
7494;DHT22;3788;49.902;8.590;2023-04-06T05:03:55;2.00;85.50
7494;DHT22;3788;49.902;8.590;2023-04-06T05:06:22;2.00;85.60
7494;DHT22;3788;49.902;8.590;2023-04-06T05:08:48;2.00;85.50
7494;DHT22;3788;49.902;8.590;2023-04-06T05:11:15;2.00;85.50
7494;DHT22;3788;49.902;8.590;2023-04-06T05:13:42;2.00;85.50
7494;DHT22;3788;49.902;8.590;2023-04-06T05:16:09;2.10;85.90
7494;DHT22;3788;49.902;8.590;2023-04-06T05:18:36;2.10;85.80
7494;DHT22;3788;49.902;8.590;2023-04-06T05:21:04;2.00;85.60
7494;DHT22;3788;49.902;8.590;2023-04-06T05:23:30;2.10;85.50
7494;DHT22;3788;49.902;8.590;2023-04-06T05:25:58;2.10;85.40
7494;DHT22;3788;49.902;8.590;2023-04-06T05:28:25;2.10;85.40
7494;DHT22;3788;49.902;8.590;2023-04-06T05:30:52;2.10;85.50
7494;DHT22;3788;49.902;8.590;2023-04-06T05:33:19;2.20;85.50
7494;DHT22;3788;49.902;8.590;2023-04-06T05:35:51;2.20;85.40
7494;DHT22;3788;49.902;8.590;2023-04-06T05:38:20;2.30;85.50
7494;DHT22;3788;49.902;8.590;2023-04-06T05:40:46;2.30;85.50
7494;DHT22;3788;49.902;8.590;2023-04-06T05:43:13;2.40;85.50
7494;DHT22;3788;49.902;8.590;2023-04-06T05:45:40;2.40;85.50
7494;DHT22;3788;49.902;8.590;2023-04-06T05:48:06;2.50;85.40
7494;DHT22;3788;49.902;8.590;2023-04-06T05:50:33;2.60;85.20
7494;DHT22;3788;49.902;8.590;2023-04-06T05:52:59;2.80;85.20
7494;DHT22;3788;49.902;8.590;2023-04-06T05:55:27;2.90;84.90
7494;DHT22;3788;49.902;8.590;2023-04-06T05:57:54;3.00;84.70
7494;DHT22;3788;49.902;8.590;2023-04-06T06:00:21;3.10;84.50
7494;DHT22;3788;49.902;8.590;2023-04-06T06:02:48;3.20;84.50
7494;DHT22;3788;49.902;8.590;2023-04-06T06:05:15;3.30;84.50
7494;DHT22;3788;49.902;8.590;2023-04-06T06:07:41;3.30;84.40
7494;DHT22;3788;49.902;8.590;2023-04-06T06:10:09;3.30;84.40
7494;DHT22;3788;49.902;8.590;2023-04-06T06:12:40;3.40;84.50
7494;DHT22;3788;49.902;8.590;2023-04-06T06:15:07;3.40;84.70
7494;DHT22;3788;49.902;8.590;2023-04-06T06:17:34;3.50;84.80
7494;DHT22;3788;49.902;8.590;2023-04-06T06:20:03;3.70;84.80
7494;DHT22;3788;49.902;8.590;2023-04-06T06:22:30;3.80;84.70
7494;DHT22;3788;49.902;8.590;2023-04-06T06:24:57;3.90;84.30
7494;DHT22;3788;49.902;8.590;2023-04-06T06:27:24;4.10;84.00
7494;DHT22;3788;49.902;8.590;2023-04-06T06:29:52;4.20;83.40
7494;DHT22;3788;49.902;8.590;2023-04-06T06:32:19;4.40;82.70
7494;DHT22;3788;49.902;8.590;2023-04-06T06:34:46;4.50;82.20
7494;DHT22;3788;49.902;8.590;2023-04-06T06:37:12;4.70;81.90
7494;DHT22;3788;49.902;8.590;2023-04-06T06:39:39;4.80;81.50
7494;DHT22;3788;49.902;8.590;2023-04-06T06:42:06;4.90;80.90
7494;DHT22;3788;49.902;8.590;2023-04-06T06:44:33;5.00;80.50
7494;DHT22;3788;49.902;8.590;2023-04-06T06:47:01;5.00;79.80
7494;DHT22;3788;49.902;8.590;2023-04-06T06:49:28;5.10;79.60
7494;DHT22;3788;49.902;8.590;2023-04-06T06:51:54;5.20;79.50
7494;DHT22;3788;49.902;8.590;2023-04-06T06:54:21;5.30;79.30
7494;DHT22;3788;49.902;8.590;2023-04-06T06:56:48;5.40;79.00
7494;DHT22;3788;49.902;8.590;2023-04-06T06:59:14;5.50;78.80
7494;DHT22;3788;49.902;8.590;2023-04-06T07:01:41;5.50;78.40
7494;DHT22;3788;49.902;8.590;2023-04-06T07:04:09;5.60;78.30
7494;DHT22;3788;49.902;8.590;2023-04-06T07:06:36;5.60;78.10
7494;DHT22;3788;49.902;8.590;2023-04-06T07:09:03;5.70;77.90
7494;DHT22;3788;49.902;8.590;2023-04-06T07:11:30;5.70;77.70
7494;DHT22;3788;49.902;8.590;2023-04-06T07:13:57;5.80;77.60
7494;DHT22;3788;49.902;8.590;2023-04-06T07:16:23;5.90;77.70
7494;DHT22;3788;49.902;8.590;2023-04-06T07:18:50;5.90;77.60
7494;DHT22;3788;49.902;8.590;2023-04-06T07:21:18;6.00;77.50
7494;DHT22;3788;49.902;8.590;2023-04-06T07:23:45;6.10;77.70
7494;DHT22;3788;49.902;8.590;2023-04-06T07:26:13;6.30;78.20
7494;DHT22;3788;49.902;8.590;2023-04-06T07:28:40;6.50;78.70
7494;DHT22;3788;49.902;8.590;2023-04-06T07:31:06;7.00;79.10
7494;DHT22;3788;49.902;8.590;2023-04-06T07:33:33;7.90;78.30
7494;DHT22;3788;49.902;8.590;2023-04-06T07:36:00;9.10;75.50
7494;DHT22;3788;49.902;8.590;2023-04-06T07:38:28;10.20;71.30
7494;DHT22;3788;49.902;8.590;2023-04-06T07:40:54;11.40;67.70
7494;DHT22;3788;49.902;8.590;2023-04-06T07:43:21;12.30;63.70
7494;DHT22;3788;49.902;8.590;2023-04-06T07:45:47;13.00;59.30
7494;DHT22;3788;49.902;8.590;2023-04-06T07:48:14;13.60;57.70
7494;DHT22;3788;49.902;8.590;2023-04-06T07:50:41;14.20;56.60
7494;DHT22;3788;49.902;8.590;2023-04-06T07:53:08;14.80;54.00
7494;DHT22;3788;49.902;8.590;2023-04-06T07:55:36;14.90;51.70
7494;DHT22;3788;49.902;8.590;2023-04-06T07:58:03;14.80;51.20
7494;DHT22;3788;49.902;8.590;2023-04-06T08:00:30;14.80;51.10
7494;DHT22;3788;49.902;8.590;2023-04-06T08:02:56;14.90;50.80
7494;DHT22;3788;49.902;8.590;2023-04-06T08:05:23;15.10;50.50
7494;DHT22;3788;49.902;8.590;2023-04-06T08:07:50;15.40;50.10
7494;DHT22;3788;49.902;8.590;2023-04-06T08:10:16;15.60;49.80
7494;DHT22;3788;49.902;8.590;2023-04-06T08:12:44;16.00;49.20
7494;DHT22;3788;49.902;8.590;2023-04-06T08:15:11;16.40;48.70
7494;DHT22;3788;49.902;8.590;2023-04-06T08:17:38;16.50;48.40
7494;DHT22;3788;49.902;8.590;2023-04-06T08:20:05;16.80;48.00
7494;DHT22;3788;49.902;8.590;2023-04-06T08:22:32;17.10;47.70
7494;DHT22;3788;49.902;8.590;2023-04-06T08:24:59;17.40;47.20
7494;DHT22;3788;49.902;8.590;2023-04-06T08:27:25;17.60;46.00
7494;DHT22;3788;49.902;8.590;2023-04-06T08:29:53;17.70;45.80
7494;DHT22;3788;49.902;8.590;2023-04-06T08:32:20;17.80;45.10
7494;DHT22;3788;49.902;8.590;2023-04-06T08:34:47;17.60;44.10
7494;DHT22;3788;49.902;8.590;2023-04-06T08:37:14;17.50;44.60
7494;DHT22;3788;49.902;8.590;2023-04-06T08:39:40;17.60;44.80
7494;DHT22;3788;49.902;8.590;2023-04-06T08:42:12;17.40;43.40
7494;DHT22;3788;49.902;8.590;2023-04-06T08:44:43;17.50;44.00
7494;DHT22;3788;49.902;8.590;2023-04-06T08:47:12;17.50;43.10
7494;DHT22;3788;49.902;8.590;2023-04-06T08:49:39;17.30;42.70
7494;DHT22;3788;49.902;8.590;2023-04-06T08:52:06;17.30;43.00
7494;DHT22;3788;49.902;8.590;2023-04-06T08:54:33;17.00;42.10
7494;DHT22;3788;49.902;8.590;2023-04-06T08:57:01;16.60;42.30
7494;DHT22;3788;49.902;8.590;2023-04-06T08:59:28;16.70;42.90
7494;DHT22;3788;49.902;8.590;2023-04-06T09:01:55;16.90;43.30
7494;DHT22;3788;49.902;8.590;2023-04-06T09:04:23;17.20;43.20
7494;DHT22;3788;49.902;8.590;2023-04-06T09:06:51;17.30;42.40
7494;DHT22;3788;49.902;8.590;2023-04-06T09:09:18;17.30;42.40
7494;DHT22;3788;49.902;8.590;2023-04-06T09:11:46;17.40;42.10
7494;DHT22;3788;49.902;8.590;2023-04-06T09:14:13;17.40;41.80
7494;DHT22;3788;49.902;8.590;2023-04-06T09:16:41;17.40;41.60
7494;DHT22;3788;49.902;8.590;2023-04-06T09:19:08;17.40;42.30
7494;DHT22;3788;49.902;8.590;2023-04-06T09:21:36;17.50;42.00
7494;DHT22;3788;49.902;8.590;2023-04-06T09:24:06;17.60;41.80
7494;DHT22;3788;49.902;8.590;2023-04-06T09:26:44;17.90;42.00
7494;DHT22;3788;49.902;8.590;2023-04-06T09:29:22;18.20;42.80
7494;DHT22;3788;49.902;8.590;2023-04-06T09:31:49;18.50;43.10
7494;DHT22;3788;49.902;8.590;2023-04-06T09:34:21;18.50;42.90
7494;DHT22;3788;49.902;8.590;2023-04-06T09:36:49;18.60;42.10
7494;DHT22;3788;49.902;8.590;2023-04-06T09:39:20;18.70;42.00
7494;DHT22;3788;49.902;8.590;2023-04-06T09:41:50;18.90;41.90
7494;DHT22;3788;49.902;8.590;2023-04-06T09:44:17;19.10;42.10
7494;DHT22;3788;49.902;8.590;2023-04-06T09:46:45;19.10;41.80
7494;DHT22;3788;49.902;8.590;2023-04-06T09:49:13;19.10;41.90
7494;DHT22;3788;49.902;8.590;2023-04-06T09:51:41;19.10;42.00
7494;DHT22;3788;49.902;8.590;2023-04-06T09:54:15;19.10;42.30
7494;DHT22;3788;49.902;8.590;2023-04-06T09:56:46;19.00;41.70
7494;DHT22;3788;49.902;8.590;2023-04-06T09:59:16;19.00;41.80
7494;DHT22;3788;49.902;8.590;2023-04-06T10:01:46;19.00;41.30
7494;DHT22;3788;49.902;8.590;2023-04-06T10:04:24;18.90;41.40
7494;DHT22;3788;49.902;8.590;2023-04-06T10:06:54;18.70;41.50
7494;DHT22;3788;49.902;8.590;2023-04-06T10:09:25;18.60;41.80
7494;DHT22;3788;49.902;8.590;2023-04-06T10:11:53;18.50;42.20
7494;DHT22;3788;49.902;8.590;2023-04-06T10:14:20;18.30;42.00
7494;DHT22;3788;49.902;8.590;2023-04-06T10:16:48;18.20;43.70
7494;DHT22;3788;49.902;8.590;2023-04-06T10:19:18;18.00;44.20
7494;DHT22;3788;49.902;8.590;2023-04-06T10:21:49;18.10;44.30
7494;DHT22;3788;49.902;8.590;2023-04-06T10:24:17;18.10;42.50
7494;DHT22;3788;49.902;8.590;2023-04-06T10:26:56;18.20;42.90
7494;DHT22;3788;49.902;8.590;2023-04-06T10:29:23;18.20;42.10
7494;DHT22;3788;49.902;8.590;2023-04-06T10:31:50;18.10;41.80
7494;DHT22;3788;49.902;8.590;2023-04-06T10:34:17;17.90;41.10
7494;DHT22;3788;49.902;8.590;2023-04-06T10:36:43;17.80;40.70
7494;DHT22;3788;49.902;8.590;2023-04-06T10:39:10;17.70;41.30
7494;DHT22;3788;49.902;8.590;2023-04-06T10:41:46;17.70;41.70
7494;DHT22;3788;49.902;8.590;2023-04-06T10:44:21;17.70;42.30
7494;DHT22;3788;49.902;8.590;2023-04-06T10:46:55;17.70;42.20
7494;DHT22;3788;49.902;8.590;2023-04-06T10:49:22;17.70;40.30
7494;DHT22;3788;49.902;8.590;2023-04-06T10:51:51;17.60;40.90
7494;DHT22;3788;49.902;8.590;2023-04-06T10:54:21;17.60;41.10
7494;DHT22;3788;49.902;8.590;2023-04-06T10:56:49;17.60;41.20
7494;DHT22;3788;49.902;8.590;2023-04-06T10:59:19;17.60;41.30
7494;DHT22;3788;49.902;8.590;2023-04-06T11:01:45;17.40;40.60
7494;DHT22;3788;49.902;8.590;2023-04-06T11:04:16;17.20;40.50
7494;DHT22;3788;49.902;8.590;2023-04-06T11:06:46;17.00;40.50
7494;DHT22;3788;49.902;8.590;2023-04-06T11:09:23;16.70;40.90
7494;DHT22;3788;49.902;8.590;2023-04-06T11:11:52;16.60;41.30
7494;DHT22;3788;49.902;8.590;2023-04-06T11:14:19;16.60;42.60
7494;DHT22;3788;49.902;8.590;2023-04-06T11:16:46;16.50;42.10
7494;DHT22;3788;49.902;8.590;2023-04-06T11:19:13;16.40;42.00
7494;DHT22;3788;49.902;8.590;2023-04-06T11:21:41;16.30;41.90
7494;DHT22;3788;49.902;8.590;2023-04-06T11:24:10;16.30;41.30
7494;DHT22;3788;49.902;8.590;2023-04-06T11:26:41;16.20;40.20
7494;DHT22;3788;49.902;8.590;2023-04-06T11:29:10;16.20;39.70
7494;DHT22;3788;49.902;8.590;2023-04-06T11:31:39;16.30;39.40
7494;DHT22;3788;49.902;8.590;2023-04-06T11:34:10;16.40;39.50
7494;DHT22;3788;49.902;8.590;2023-04-06T11:36:40;16.40;38.80
7494;DHT22;3788;49.902;8.590;2023-04-06T11:39:08;16.40;39.20
7494;DHT22;3788;49.902;8.590;2023-04-06T11:41:35;16.30;39.40
7494;DHT22;3788;49.902;8.590;2023-04-06T11:44:03;16.30;39.70
7494;DHT22;3788;49.902;8.590;2023-04-06T11:46:31;16.40;39.00
7494;DHT22;3788;49.902;8.590;2023-04-06T11:48:58;16.50;39.60
7494;DHT22;3788;49.902;8.590;2023-04-06T11:51:26;16.50;38.60
7494;DHT22;3788;49.902;8.590;2023-04-06T11:53:53;16.40;38.30
7494;DHT22;3788;49.902;8.590;2023-04-06T11:56:23;16.30;39.00
7494;DHT22;3788;49.902;8.590;2023-04-06T11:58:50;16.20;39.10
7494;DHT22;3788;49.902;8.590;2023-04-06T12:01:17;16.10;39.50
7494;DHT22;3788;49.902;8.590;2023-04-06T12:03:45;16.10;40.00
7494;DHT22;3788;49.902;8.590;2023-04-06T12:06:12;16.00;38.60
7494;DHT22;3788;49.902;8.590;2023-04-06T12:08:38;15.90;39.20
7494;DHT22;3788;49.902;8.590;2023-04-06T12:11:06;15.90;39.80
7494;DHT22;3788;49.902;8.590;2023-04-06T12:13:32;16.10;40.30
7494;DHT22;3788;49.902;8.590;2023-04-06T12:15:59;16.20;40.00
7494;DHT22;3788;49.902;8.590;2023-04-06T12:18:26;16.20;38.60
7494;DHT22;3788;49.902;8.590;2023-04-06T12:20:54;16.20;38.70
7494;DHT22;3788;49.902;8.590;2023-04-06T12:23:20;16.10;39.10
7494;DHT22;3788;49.902;8.590;2023-04-06T12:25:47;16.10;39.20
7494;DHT22;3788;49.902;8.590;2023-04-06T12:28:14;16.10;39.60
7494;DHT22;3788;49.902;8.590;2023-04-06T12:30:41;16.10;39.60
7494;DHT22;3788;49.902;8.590;2023-04-06T12:33:07;16.00;38.80
7494;DHT22;3788;49.902;8.590;2023-04-06T12:35:34;15.90;38.70
7494;DHT22;3788;49.902;8.590;2023-04-06T12:38:02;15.80;39.00
7494;DHT22;3788;49.902;8.590;2023-04-06T12:40:29;15.80;38.70
7494;DHT22;3788;49.902;8.590;2023-04-06T12:42:55;15.70;38.50
7494;DHT22;3788;49.902;8.590;2023-04-06T12:45:22;15.60;39.50
7494;DHT22;3788;49.902;8.590;2023-04-06T12:47:49;15.50;39.50
7494;DHT22;3788;49.902;8.590;2023-04-06T12:50:17;15.50;39.90
7494;DHT22;3788;49.902;8.590;2023-04-06T12:52:43;15.60;40.10
7494;DHT22;3788;49.902;8.590;2023-04-06T12:55:17;15.70;39.60
7494;DHT22;3788;49.902;8.590;2023-04-06T12:57:46;15.80;38.60
7494;DHT22;3788;49.902;8.590;2023-04-06T13:00:16;15.90;38.90
7494;DHT22;3788;49.902;8.590;2023-04-06T13:02:43;16.00;39.00
7494;DHT22;3788;49.902;8.590;2023-04-06T13:05:12;16.10;38.80
7494;DHT22;3788;49.902;8.590;2023-04-06T13:07:40;16.00;38.40
7494;DHT22;3788;49.902;8.590;2023-04-06T13:10:07;16.10;38.40
7494;DHT22;3788;49.902;8.590;2023-04-06T13:12:35;16.00;38.50
7494;DHT22;3788;49.902;8.590;2023-04-06T13:15:03;16.00;38.50
7494;DHT22;3788;49.902;8.590;2023-04-06T13:17:29;15.90;38.80
7494;DHT22;3788;49.902;8.590;2023-04-06T13:19:56;15.80;38.50
7494;DHT22;3788;49.902;8.590;2023-04-06T13:22:23;15.70;38.50
7494;DHT22;3788;49.902;8.590;2023-04-06T13:24:50;15.70;38.60
7494;DHT22;3788;49.902;8.590;2023-04-06T13:27:16;15.70;39.00
7494;DHT22;3788;49.902;8.590;2023-04-06T13:29:44;15.80;39.20
7494;DHT22;3788;49.902;8.590;2023-04-06T13:32:11;15.90;39.50
7494;DHT22;3788;49.902;8.590;2023-04-06T13:34:37;16.10;39.70
7494;DHT22;3788;49.902;8.590;2023-04-06T13:37:05;16.20;39.70
7494;DHT22;3788;49.902;8.590;2023-04-06T13:39:32;16.20;39.20
7494;DHT22;3788;49.902;8.590;2023-04-06T13:41:59;16.20;39.00
7494;DHT22;3788;49.902;8.590;2023-04-06T13:44:25;16.20;38.70
7494;DHT22;3788;49.902;8.590;2023-04-06T13:46:53;16.20;38.80
7494;DHT22;3788;49.902;8.590;2023-04-06T13:49:20;16.30;38.80
7494;DHT22;3788;49.902;8.590;2023-04-06T13:51:47;16.30;39.00
7494;DHT22;3788;49.902;8.590;2023-04-06T13:54:13;16.20;39.00
7494;DHT22;3788;49.902;8.590;2023-04-06T13:56:40;16.10;38.90
7494;DHT22;3788;49.902;8.590;2023-04-06T13:59:07;16.00;38.80
7494;DHT22;3788;49.902;8.590;2023-04-06T14:01:34;15.90;39.10
7494;DHT22;3788;49.902;8.590;2023-04-06T14:04:02;15.90;39.30
7494;DHT22;3788;49.902;8.590;2023-04-06T14:06:29;15.90;39.00
7494;DHT22;3788;49.902;8.590;2023-04-06T14:08:55;15.80;38.50
7494;DHT22;3788;49.902;8.590;2023-04-06T14:11:22;15.70;38.40
7494;DHT22;3788;49.902;8.590;2023-04-06T14:13:49;15.60;38.70
7494;DHT22;3788;49.902;8.590;2023-04-06T14:16:16;15.60;39.00
7494;DHT22;3788;49.902;8.590;2023-04-06T14:18:45;15.60;38.80
7494;DHT22;3788;49.902;8.590;2023-04-06T14:21:13;15.50;38.70
7494;DHT22;3788;49.902;8.590;2023-04-06T14:23:40;15.50;38.80
7494;DHT22;3788;49.902;8.590;2023-04-06T14:26:07;15.50;38.90
7494;DHT22;3788;49.902;8.590;2023-04-06T14:28:35;15.50;38.90
7494;DHT22;3788;49.902;8.590;2023-04-06T14:31:08;15.50;39.40
7494;DHT22;3788;49.902;8.590;2023-04-06T14:33:35;15.40;39.80
7494;DHT22;3788;49.902;8.590;2023-04-06T14:36:02;15.40;39.80
7494;DHT22;3788;49.902;8.590;2023-04-06T14:38:31;15.30;39.20
7494;DHT22;3788;49.902;8.590;2023-04-06T14:40:58;15.30;39.00
7494;DHT22;3788;49.902;8.590;2023-04-06T14:43:25;15.20;38.90
7494;DHT22;3788;49.902;8.590;2023-04-06T14:45:52;15.20;39.20
7494;DHT22;3788;49.902;8.590;2023-04-06T14:48:19;15.20;39.00
7494;DHT22;3788;49.902;8.590;2023-04-06T14:50:52;15.30;38.90
7494;DHT22;3788;49.902;8.590;2023-04-06T14:53:20;15.30;39.10
7494;DHT22;3788;49.902;8.590;2023-04-06T14:55:48;15.40;39.40
7494;DHT22;3788;49.902;8.590;2023-04-06T14:58:16;15.40;39.30
7494;DHT22;3788;49.902;8.590;2023-04-06T15:00:43;15.40;39.60
7494;DHT22;3788;49.902;8.590;2023-04-06T15:03:10;15.40;39.60
7494;DHT22;3788;49.902;8.590;2023-04-06T15:05:36;15.40;39.40
7494;DHT22;3788;49.902;8.590;2023-04-06T15:08:03;15.50;39.50
7494;DHT22;3788;49.902;8.590;2023-04-06T15:10:31;15.40;39.50
7494;DHT22;3788;49.902;8.590;2023-04-06T15:12:59;15.40;39.60
7494;DHT22;3788;49.902;8.590;2023-04-06T15:15:26;15.30;39.40
7494;DHT22;3788;49.902;8.590;2023-04-06T15:17:53;15.30;38.30
7494;DHT22;3788;49.902;8.590;2023-04-06T15:20:20;15.20;38.10
7494;DHT22;3788;49.902;8.590;2023-04-06T15:22:46;15.10;38.30
7494;DHT22;3788;49.902;8.590;2023-04-06T15:25:13;15.00;38.30
7494;DHT22;3788;49.902;8.590;2023-04-06T15:27:41;15.00;38.20
7494;DHT22;3788;49.902;8.590;2023-04-06T15:30:10;15.00;38.20
7494;DHT22;3788;49.902;8.590;2023-04-06T15:32:36;14.90;38.30
7494;DHT22;3788;49.902;8.590;2023-04-06T15:35:09;14.90;38.50
7494;DHT22;3788;49.902;8.590;2023-04-06T15:37:36;14.90;38.70
7494;DHT22;3788;49.902;8.590;2023-04-06T15:40:04;14.90;38.70
7494;DHT22;3788;49.902;8.590;2023-04-06T15:42:30;14.80;39.20
7494;DHT22;3788;49.902;8.590;2023-04-06T15:44:57;14.80;39.70
7494;DHT22;3788;49.902;8.590;2023-04-06T15:47:25;14.70;40.20
7494;DHT22;3788;49.902;8.590;2023-04-06T15:49:52;14.60;39.50
7494;DHT22;3788;49.902;8.590;2023-04-06T15:52:18;14.50;39.60
7494;DHT22;3788;49.902;8.590;2023-04-06T15:54:47;14.50;39.40
7494;DHT22;3788;49.902;8.590;2023-04-06T15:57:13;14.50;39.50
7494;DHT22;3788;49.902;8.590;2023-04-06T15:59:40;14.40;40.70
7494;DHT22;3788;49.902;8.590;2023-04-06T16:02:07;14.40;40.40
7494;DHT22;3788;49.902;8.590;2023-04-06T16:04:35;14.30;40.50
7494;DHT22;3788;49.902;8.590;2023-04-06T16:07:02;14.20;40.90
7494;DHT22;3788;49.902;8.590;2023-04-06T16:09:29;14.10;40.70
7494;DHT22;3788;49.902;8.590;2023-04-06T16:11:55;14.00;40.90